createdAt,value
2023-04-18T00:00:43.583Z,101922.50
2023-04-18T00:03:10.047Z,101927.19
2023-04-18T00:05:36.513Z,101929.28
2023-04-18T00:08:02.716Z,101925.75
2023-04-18T00:10:28.935Z,101914.59
2023-04-18T00:12:55.153Z,101908.66
2023-04-18T00:15:21.417Z,101916.06
2023-04-18T00:17:47.686Z,101907.19
2023-04-18T00:20:13.953Z,101910.25
2023-04-18T00:22:40.166Z,101917.19
2023-04-18T00:25:06.592Z,101917.34
2023-04-18T00:27:32.811Z,101914.44
2023-04-18T00:29:59.025Z,101917.84
2023-04-18T00:32:25.268Z,101912.19
2023-04-18T00:34:51.507Z,101908.47
2023-04-18T00:37:17.706Z,101902.66
2023-04-18T00:39:43.910Z,101895.25
2023-04-18T00:42:10.104Z,101902.50
2023-04-18T00:44:36.309Z,101913.66
2023-04-18T00:47:02.527Z,101920.25
2023-04-18T00:49:28.741Z,101921.06
2023-04-18T00:51:55.541Z,101921.72
2023-04-18T00:54:21.814Z,101908.34
2023-04-18T00:56:48.045Z,101925.75
2023-04-18T00:59:14.245Z,101915.09
2023-04-18T01:01:40.501Z,101918.34
2023-04-18T01:04:07.789Z,101915.44
2023-04-18T01:06:34.120Z,101907.00
2023-04-18T01:09:00.324Z,101901.66
2023-04-18T01:11:26.533Z,101900.16
2023-04-18T01:13:59.613Z,101904.56
2023-04-18T01:16:25.914Z,101906.78
2023-04-18T01:18:52.205Z,101905.53
2023-04-18T01:21:18.424Z,101903.44
2023-04-18T01:23:44.623Z,101907.47
2023-04-18T01:26:10.838Z,101902.47
2023-04-18T01:28:37.062Z,101913.91
2023-04-18T01:31:03.345Z,101908.91
2023-04-18T01:33:29.587Z,101908.56
2023-04-18T01:35:55.806Z,101909.41
2023-04-18T01:38:21.999Z,101900.66
2023-04-18T01:40:48.700Z,101897.78
2023-04-18T01:43:14.903Z,101898.69
2023-04-18T01:45:41.129Z,101892.53
2023-04-18T01:48:07.344Z,101886.88
2023-04-18T01:50:33.556Z,101890.31
2023-04-18T01:52:59.760Z,101889.34
2023-04-18T01:55:25.977Z,101891.13
2023-04-18T01:57:52.179Z,101888.38
2023-04-18T02:00:18.615Z,101883.19
2023-04-18T02:02:44.898Z,101874.44
2023-04-18T02:05:11.207Z,101874.59
2023-04-18T02:07:37.420Z,101870.69
2023-04-18T02:10:03.673Z,101872.94
2023-04-18T02:18:48.556Z,101864.16
2023-04-18T02:21:14.764Z,101866.53
2023-04-18T02:23:40.967Z,101864.91
2023-04-18T02:26:07.179Z,101856.53
2023-04-18T02:28:33.377Z,101858.94
2023-04-18T02:30:59.650Z,101856.88
2023-04-18T02:33:25.867Z,101858.66
2023-04-18T02:35:52.073Z,101855.28
2023-04-18T02:38:18.282Z,101862.19
2023-04-18T02:40:44.494Z,101865.59
2023-04-18T02:43:10.695Z,101864.56
2023-04-18T02:45:36.949Z,101863.56
2023-04-18T02:48:03.225Z,101859.75
2023-04-18T02:50:29.501Z,101872.16
2023-04-18T02:52:55.720Z,101866.28
2023-04-18T02:55:21.954Z,101872.13
2023-04-18T02:57:48.199Z,101878.25
2023-04-18T03:00:14.499Z,101878.09
2023-04-18T03:02:40.936Z,101881.47
2023-04-18T03:05:07.616Z,101875.47
2023-04-18T03:07:33.910Z,101874.66
2023-04-18T03:10:00.140Z,101872.69
2023-04-18T03:12:26.376Z,101872.84
2023-04-18T03:14:52.614Z,101880.94
2023-04-18T03:17:18.846Z,101889.19
2023-04-18T03:19:45.036Z,101888.19
2023-04-18T03:22:11.250Z,101880.91
2023-04-18T03:24:37.462Z,101880.47
2023-04-18T03:27:03.692Z,101879.97
2023-04-18T03:29:29.898Z,101891.75
2023-04-18T03:31:56.133Z,101882.81
2023-04-18T03:34:22.346Z,101881.66
2023-04-18T03:36:48.550Z,101893.91
2023-04-18T03:39:14.761Z,101897.16
2023-04-18T03:41:40.984Z,101893.91
2023-04-18T03:44:07.187Z,101901.16
2023-04-18T03:46:33.423Z,101909.09
2023-04-18T03:48:59.700Z,101918.09
2023-04-18T03:51:25.908Z,101917.28
2023-04-18T03:53:52.132Z,101909.06
2023-04-18T03:56:18.351Z,101915.03
2023-04-18T03:58:44.553Z,101918.22
2023-04-18T04:01:10.770Z,101913.25
2023-04-18T04:03:37.213Z,101925.69
2023-04-18T04:06:03.702Z,101929.56
2023-04-18T04:08:29.894Z,101916.25
2023-04-18T04:10:56.100Z,101910.28
2023-04-18T04:13:22.305Z,101904.94
2023-04-18T04:15:48.522Z,101905.78
2023-04-18T04:18:14.726Z,101896.44
2023-04-18T04:20:40.943Z,101898.59
2023-04-18T04:23:07.159Z,101896.19
2023-04-18T04:25:33.366Z,101888.75
2023-04-18T04:27:59.586Z,101892.97
2023-04-18T04:30:25.782Z,101894.91
2023-04-18T04:32:52.021Z,101893.59
2023-04-18T04:35:18.235Z,101898.81
2023-04-18T04:37:44.598Z,101893.47
2023-04-18T04:40:10.888Z,101910.25
2023-04-18T04:42:37.102Z,101909.47
2023-04-18T04:45:03.416Z,101907.84
2023-04-18T04:47:29.654Z,101898.47
2023-04-18T04:49:55.865Z,101904.94
2023-04-18T04:52:22.083Z,101901.88
2023-04-18T04:54:48.273Z,101899.41
2023-04-18T04:57:14.482Z,101907.03
2023-04-18T04:59:40.682Z,101901.06
2023-04-18T05:02:06.984Z,101902.66
2023-04-18T05:04:33.361Z,101899.91
2023-04-18T05:06:59.655Z,101894.09
2023-04-18T05:09:25.863Z,101892.47
2023-04-18T05:11:52.088Z,101888.06
2023-04-18T05:14:18.295Z,101893.25
2023-04-18T05:16:44.532Z,101882.38
2023-04-18T05:19:10.773Z,101883.19
2023-04-18T05:21:37.001Z,101876.53
2023-04-18T05:24:03.214Z,101869.53
2023-04-18T05:26:29.435Z,101863.34
2023-04-18T05:28:55.640Z,101859.44
2023-04-18T05:31:21.900Z,101862.63
2023-04-18T05:33:48.108Z,101862.91
2023-04-18T05:36:14.325Z,101863.53
2023-04-18T05:38:40.529Z,101864.41
2023-04-18T05:41:06.750Z,101866.97
2023-04-18T05:43:32.963Z,101857.97
2023-04-18T05:45:59.211Z,101866.50
2023-04-18T05:48:25.444Z,101870.97
2023-04-18T05:50:51.653Z,101882.34
2023-04-18T05:53:17.867Z,101883.91
2023-04-18T05:55:44.072Z,101880.53
2023-04-18T05:58:10.276Z,101882.78
2023-04-18T06:00:36.482Z,101899.16
2023-04-18T06:03:02.900Z,101900.84
2023-04-18T06:05:29.400Z,101904.44
2023-04-18T06:07:55.689Z,101909.19
2023-04-18T06:10:21.910Z,101914.84
2023-04-18T06:12:48.115Z,101916.19
2023-04-18T06:15:14.327Z,101915.28
2023-04-18T06:17:40.591Z,101931.94
2023-04-18T06:20:07.011Z,101972.72
2023-04-18T06:22:33.234Z,101942.44
2023-04-18T06:24:59.465Z,101834.00
2023-04-18T06:27:31.116Z,101742.44
2023-04-18T06:29:58.204Z,101578.94
2023-04-18T06:32:24.450Z,101474.97
2023-04-18T06:34:50.665Z,101456.69
2023-04-18T06:37:17.167Z,101442.72
2023-04-18T06:39:43.386Z,101430.84
2023-04-18T06:42:09.608Z,101562.59
2023-04-18T06:44:35.808Z,101670.44
2023-04-18T06:47:02.251Z,101824.59
2023-04-18T06:49:28.451Z,101938.50
2023-04-18T06:51:54.662Z,102039.88
2023-04-18T06:54:20.876Z,102075.75
2023-04-18T06:56:47.096Z,102081.59
2023-04-18T06:59:13.404Z,102110.81
2023-04-18T07:01:40.181Z,102134.28
2023-04-18T07:04:06.483Z,102155.91
2023-04-18T07:06:32.797Z,102161.56
2023-04-18T07:08:59.014Z,102153.13
2023-04-18T07:11:25.238Z,102192.63
2023-04-18T07:13:51.435Z,102206.09
2023-04-18T07:16:17.679Z,102222.03
2023-04-18T07:18:43.911Z,102235.75
2023-04-18T07:21:10.165Z,102235.75
2023-04-18T07:23:36.621Z,102244.19
2023-04-18T07:26:03.119Z,102244.81
2023-04-18T07:28:29.490Z,102238.53
2023-04-18T07:30:55.761Z,102231.28
2023-04-18T07:33:22.290Z,102222.97
2023-04-18T07:35:48.504Z,102230.63
2023-04-18T07:38:14.711Z,102241.16
2023-04-18T07:40:40.962Z,102262.69
2023-04-18T07:43:07.276Z,102246.09
2023-04-18T07:45:33.474Z,102263.28
2023-04-18T07:47:59.782Z,102244.44
2023-04-18T07:50:26.023Z,102203.91
2023-04-18T07:52:52.247Z,102192.63
2023-04-18T07:55:18.446Z,102203.44
2023-04-18T07:57:45.962Z,102188.94
2023-04-18T08:00:13.588Z,102180.69
2023-04-18T08:02:40.189Z,102173.16
2023-04-18T08:05:06.901Z,102181.59
2023-04-18T08:07:33.242Z,102212.16
2023-04-18T08:09:59.459Z,102217.88
2023-04-18T08:12:25.667Z,102190.72
2023-04-18T08:14:51.878Z,102163.88
2023-04-18T08:17:18.155Z,102164.19
2023-04-18T08:19:44.400Z,102155.41
2023-04-18T08:22:10.643Z,102150.53
2023-04-18T08:24:40.114Z,102180.19
2023-04-18T08:27:06.440Z,102179.06
2023-04-18T08:29:32.942Z,102172.56
2023-04-18T08:31:59.549Z,102180.09
2023-04-18T08:34:25.798Z,102164.69
2023-04-18T08:36:52.013Z,102173.22
2023-04-18T08:39:18.236Z,102165.03
2023-04-18T08:41:44.504Z,102139.38
2023-04-18T08:44:12.929Z,102125.81
2023-04-18T08:46:42.134Z,102094.69
2023-04-18T08:49:09.606Z,102131.84
2023-04-18T08:51:37.130Z,102084.16
2023-04-18T08:54:05.022Z,102091.38
2023-04-18T08:56:31.244Z,102088.16
2023-04-18T08:58:57.608Z,102079.38
2023-04-18T09:01:43.892Z,102092.00
2023-04-18T09:04:10.186Z,102120.97
2023-04-18T09:06:36.661Z,102118.78
2023-04-18T09:09:02.923Z,102142.72
2023-04-18T09:11:29.704Z,102156.00
2023-04-18T09:13:56.064Z,102145.78
2023-04-18T09:16:22.850Z,102120.66
2023-04-18T09:19:08.218Z,102130.91
2023-04-18T09:21:34.599Z,102174.41
2023-04-18T09:24:19.441Z,102159.97
2023-04-18T09:26:45.691Z,102130.44
2023-04-18T09:29:11.990Z,102047.03
2023-04-18T09:31:52.857Z,102015.19
2023-04-18T09:34:22.135Z,102042.66
2023-04-18T09:36:48.428Z,102072.97
2023-04-18T09:39:23.431Z,102056.78
2023-04-18T09:41:59.070Z,102081.44
2023-04-18T09:44:25.272Z,102089.50
2023-04-18T09:46:51.471Z,102076.47
2023-04-18T09:49:17.881Z,102073.66
2023-04-18T09:51:44.384Z,102074.09
2023-04-18T09:54:10.623Z,102067.09
2023-04-18T09:56:36.902Z,102084.16
2023-04-18T09:59:05.104Z,102077.34
2023-04-18T10:01:31.373Z,102095.22
2023-04-18T10:03:57.749Z,102082.56
2023-04-18T10:06:24.228Z,102075.16
2023-04-18T10:08:50.449Z,102041.22
2023-04-18T10:11:18.005Z,102033.78
2023-04-18T10:13:47.122Z,102016.72
2023-04-18T10:16:13.527Z,102031.59
2023-04-18T10:18:39.769Z,102050.22
2023-04-18T10:21:05.971Z,102070.53
2023-04-18T10:23:32.148Z,101992.84
2023-04-18T10:25:58.535Z,101987.38
2023-04-18T10:28:24.760Z,102010.63
2023-04-18T10:30:51.636Z,101992.41
2023-04-18T10:33:30.267Z,102062.44
2023-04-18T10:36:03.537Z,102009.81
2023-04-18T10:38:29.878Z,102011.38
2023-04-18T10:41:15.096Z,101926.25
2023-04-18T10:44:00.080Z,102021.53
2023-04-18T10:46:32.260Z,101989.13
2023-04-18T10:49:17.619Z,101844.50
2023-04-18T10:51:44.155Z,101859.16
2023-04-18T10:54:11.659Z,101926.88
2023-04-18T10:56:37.915Z,101756.22
2023-04-18T10:59:04.173Z,101792.81
2023-04-18T11:01:32.732Z,101952.84
2023-04-18T11:03:59.521Z,101855.06
2023-04-18T11:06:25.829Z,101823.94
2023-04-18T11:08:52.405Z,101752.22
2023-04-18T11:11:18.619Z,101750.81
2023-04-18T11:13:54.573Z,101724.47
2023-04-18T11:16:27.546Z,101721.59
2023-04-18T11:18:53.776Z,101721.06
2023-04-18T11:21:20.001Z,101714.91
2023-04-18T11:23:46.660Z,101669.94
2023-04-18T11:26:12.873Z,101783.94
2023-04-18T11:28:39.114Z,101745.91
2023-04-18T11:31:05.362Z,101828.53
2023-04-18T11:33:32.556Z,101735.97
2023-04-18T11:35:58.759Z,101825.75
2023-04-18T11:38:30.983Z,101733.66
2023-04-18T11:40:57.211Z,101624.66
2023-04-18T11:43:24.268Z,101505.53
2023-04-18T11:45:54.017Z,101472.00
2023-04-18T11:48:20.245Z,101350.13
2023-04-18T11:50:46.470Z,101427.41
2023-04-18T11:53:12.680Z,101357.91
2023-04-18T11:55:38.891Z,101289.00
2023-04-18T11:58:05.095Z,101438.63
2023-04-18T12:00:35.269Z,101432.00
2023-04-18T12:03:02.163Z,101408.34
2023-04-18T12:05:29.517Z,101384.81
2023-04-18T12:07:56.086Z,101402.13
2023-04-18T12:10:22.317Z,101420.47
2023-04-18T12:12:52.034Z,101194.22
2023-04-18T12:15:18.284Z,101303.41
2023-04-18T12:17:44.760Z,101120.44
2023-04-18T12:20:11.107Z,101007.06
2023-04-18T12:22:40.769Z,100978.38
2023-04-18T12:25:17.223Z,101285.47
2023-04-18T12:27:47.704Z,101129.06
2023-04-18T12:30:13.962Z,100980.63
2023-04-18T12:32:40.233Z,100960.19
2023-04-18T12:35:06.788Z,101227.59
2023-04-18T12:37:33.009Z,101203.94
2023-04-18T12:39:59.217Z,101364.81
2023-04-18T12:42:25.449Z,101541.25
2023-04-18T12:44:51.643Z,101461.13
2023-04-18T12:47:17.886Z,101458.53
2023-04-18T12:49:44.092Z,101516.97
2023-04-18T12:52:10.454Z,101406.34
2023-04-18T12:54:38.068Z,101587.47
2023-04-18T12:57:04.332Z,101568.22
2023-04-18T12:59:30.552Z,101589.88
2023-04-18T13:01:56.900Z,101429.38
2023-04-18T13:04:23.349Z,101448.03
2023-04-18T13:06:49.714Z,101452.34
2023-04-18T13:09:16.004Z,101717.34
2023-04-18T13:11:42.298Z,101859.00
2023-04-18T13:14:08.507Z,101914.34
2023-04-18T13:16:35.075Z,101894.16
2023-04-18T13:19:01.318Z,101941.59
2023-04-18T13:21:27.553Z,101895.91
2023-04-18T13:23:53.756Z,101769.34
2023-04-18T13:26:19.996Z,101757.75
2023-04-18T13:28:46.210Z,101778.00
2023-04-18T13:31:12.555Z,101638.56
2023-04-18T13:33:39.541Z,101635.25
2023-04-18T13:36:05.907Z,101578.91
2023-04-18T13:38:32.112Z,101684.13
2023-04-18T13:41:08.882Z,101715.56
2023-04-18T13:43:37.450Z,101653.66
2023-04-18T13:46:03.798Z,101478.06
2023-04-18T13:48:30.043Z,101506.47
2023-04-18T13:50:56.617Z,101531.66
2023-04-18T13:53:22.846Z,101471.88
2023-04-18T13:55:49.057Z,101422.41
2023-04-18T13:58:15.329Z,101422.78
2023-04-18T14:00:41.547Z,101370.19
2023-04-18T14:03:07.861Z,101359.28
2023-04-18T14:05:34.145Z,101408.88
2023-04-18T14:08:00.418Z,101447.78
2023-04-18T14:10:26.743Z,101411.13
2023-04-18T14:12:52.959Z,101367.63
2023-04-18T14:15:19.173Z,101406.88
2023-04-18T14:17:45.885Z,101422.91
2023-04-18T14:20:12.290Z,101433.69
2023-04-18T14:22:38.514Z,101568.03
2023-04-18T14:25:04.907Z,101609.53
2023-04-18T14:27:31.134Z,101732.16
2023-04-18T14:29:57.331Z,101637.06
2023-04-18T14:32:23.579Z,101622.38
2023-04-18T14:34:49.836Z,101614.63
2023-04-18T14:37:17.548Z,101634.00
2023-04-18T14:39:45.930Z,101523.91
2023-04-18T14:42:12.162Z,101507.50
2023-04-18T14:44:38.355Z,101446.06
2023-04-18T14:47:04.680Z,101458.22
2023-04-18T14:49:30.891Z,101503.50
2023-04-18T14:51:57.117Z,101425.69
2023-04-18T14:54:23.330Z,101510.31
2023-04-18T14:56:49.604Z,101588.66
2023-04-18T14:59:16.805Z,101567.31
2023-04-18T15:01:43.490Z,101607.53
2023-04-18T15:04:09.873Z,101581.25
2023-04-18T15:06:36.302Z,101483.97
2023-04-18T15:09:02.517Z,101551.44
2023-04-18T15:11:28.738Z,101655.84
2023-04-18T15:13:54.984Z,101707.22
2023-04-18T15:16:21.272Z,101650.81
2023-04-18T15:18:47.510Z,101670.69
2023-04-18T15:21:13.728Z,101725.34
2023-04-18T15:23:39.952Z,101790.19
2023-04-18T15:26:06.168Z,101808.91
2023-04-18T15:28:32.389Z,101799.66
2023-04-18T15:30:58.602Z,101902.47
2023-04-18T15:33:24.835Z,101870.66
2023-04-18T15:35:51.256Z,101891.69
2023-04-18T15:38:17.520Z,101969.72
2023-04-18T15:40:43.731Z,102028.84
2023-04-18T15:43:09.951Z,102034.16
2023-04-18T15:45:36.178Z,102055.19
2023-04-18T15:48:02.598Z,102013.00
2023-04-18T15:50:29.214Z,101913.69
2023-04-18T15:52:56.555Z,101985.97
2023-04-18T15:55:22.824Z,101883.94
2023-04-18T15:57:49.039Z,101702.44
2023-04-18T16:00:15.374Z,101594.13
2023-04-18T16:02:44.673Z,101592.34
2023-04-18T16:05:11.300Z,101655.47
2023-04-18T16:07:37.903Z,101682.72
2023-04-18T16:10:04.360Z,101629.88
2023-04-18T16:15:12.961Z,101632.72
2023-04-18T16:17:42.715Z,101729.13
2023-04-18T16:22:49.185Z,101655.25
2023-04-18T16:25:37.540Z,101691.81
2023-04-18T16:28:04.851Z,101758.38
2023-04-18T16:30:34.238Z,101789.03
2023-04-18T16:33:00.624Z,101695.44
2023-04-18T16:35:26.937Z,101721.19
2023-04-18T16:37:53.165Z,101816.88
2023-04-18T16:40:19.376Z,101708.31
2023-04-18T16:42:45.589Z,101603.41
2023-04-18T16:45:11.794Z,101622.81
2023-04-18T16:47:38.176Z,101599.09
2023-04-18T16:50:04.548Z,101698.13
2023-04-18T16:52:30.815Z,101770.75
2023-04-18T16:54:57.025Z,101681.84
2023-04-18T16:57:23.264Z,101649.56
2023-04-18T16:59:49.471Z,101409.59
2023-04-18T17:02:16.493Z,101302.09
2023-04-18T17:04:56.266Z,101324.16
2023-04-18T17:07:22.594Z,101287.22
2023-04-18T17:09:48.816Z,101362.88
2023-04-18T17:12:15.052Z,101322.09
2023-04-18T17:14:41.249Z,101283.09
2023-04-18T17:17:07.482Z,101359.84
2023-04-18T17:19:33.699Z,101477.66
2023-04-18T17:21:59.929Z,101657.09
2023-04-18T17:24:26.133Z,101791.34
2023-04-18T17:26:52.388Z,101859.88
2023-04-18T17:29:18.592Z,101820.31
2023-04-18T17:31:44.825Z,101823.00
2023-04-18T17:34:11.053Z,101926.00
2023-04-18T17:36:37.265Z,101887.66
2023-04-18T17:39:03.530Z,101918.22
2023-04-18T17:41:29.727Z,101991.66
2023-04-18T17:43:55.934Z,102066.84
2023-04-18T17:46:22.150Z,102097.97
2023-04-18T17:48:48.387Z,102090.66
2023-04-18T17:51:14.612Z,102113.50
2023-04-18T17:53:40.817Z,102056.97
2023-04-18T17:56:07.053Z,101993.38
2023-04-18T17:58:33.271Z,101994.13
2023-04-18T18:00:59.552Z,101935.63
2023-04-18T18:03:25.949Z,101853.44
2023-04-18T18:05:52.264Z,101741.84
2023-04-18T18:08:18.466Z,101711.00
2023-04-18T18:10:45.547Z,101599.03
2023-04-18T18:13:12.791Z,101567.44
2023-04-18T18:15:38.998Z,101536.03
2023-04-18T18:18:05.362Z,101720.00
2023-04-18T18:20:31.590Z,101601.06
2023-04-18T18:22:57.811Z,101547.84
2023-04-18T18:25:24.019Z,101502.41
2023-04-18T18:27:50.235Z,101529.66
2023-04-18T18:30:16.430Z,101543.66
2023-04-18T18:32:42.707Z,101382.41
2023-04-18T18:35:09.064Z,101194.69
2023-04-18T18:37:35.275Z,101207.84
2023-04-18T18:40:02.608Z,101134.31
2023-04-18T18:42:28.811Z,100966.06
2023-04-18T18:44:55.020Z,101081.19
2023-04-18T18:47:21.310Z,101090.69
2023-04-18T18:49:47.589Z,101271.56
2023-04-18T18:52:13.885Z,101415.97
2023-04-18T18:54:40.095Z,101641.16
2023-04-18T18:57:06.321Z,101810.75
2023-04-18T18:59:32.523Z,101875.13
2023-04-18T19:01:59.022Z,101986.28
2023-04-18T19:04:25.334Z,101992.59
2023-04-18T19:06:51.639Z,101995.38
2023-04-18T19:09:17.868Z,102048.25
2023-04-18T19:11:44.104Z,102016.66
2023-04-18T19:14:10.300Z,102051.47
2023-04-18T19:16:36.669Z,102020.63
2023-04-18T19:19:03.049Z,102031.44
2023-04-18T19:21:29.281Z,102047.88
2023-04-18T19:23:55.496Z,102063.06
2023-04-18T19:26:21.792Z,102064.59
2023-04-18T19:28:48.028Z,102059.16
2023-04-18T19:31:14.236Z,101930.59
2023-04-18T19:33:40.491Z,101897.94
2023-04-18T19:36:06.712Z,101856.59
2023-04-18T19:38:32.934Z,101949.34
2023-04-18T19:40:59.127Z,101975.00
2023-04-18T19:43:25.336Z,101933.97
2023-04-18T19:45:52.622Z,101897.47
2023-04-18T19:48:20.775Z,101938.84
2023-04-18T19:50:46.965Z,101954.56
2023-04-18T19:53:13.170Z,101960.63
2023-04-18T19:55:39.368Z,101989.88
2023-04-18T19:58:05.589Z,102052.81
2023-04-18T20:00:31.797Z,102125.66
2023-04-18T20:02:58.266Z,102146.59
2023-04-18T20:05:24.790Z,102256.63
2023-04-18T20:07:51.098Z,102159.00
2023-04-18T20:10:19.070Z,102129.16
2023-04-18T20:12:45.303Z,102125.19
2023-04-18T20:15:11.686Z,102141.19
2023-04-18T20:17:37.959Z,102184.50
2023-04-18T20:20:04.444Z,102274.97
2023-04-18T20:22:30.681Z,102285.50
2023-04-18T20:24:56.877Z,102305.91
2023-04-18T20:27:23.092Z,102239.53
2023-04-18T20:29:49.299Z,102309.59
2023-04-18T20:32:15.498Z,102314.31
2023-04-18T20:34:41.702Z,102232.56
2023-04-18T20:37:07.911Z,102189.50
2023-04-18T20:39:34.122Z,102182.69
2023-04-18T20:42:00.351Z,102173.16
2023-04-18T20:44:26.566Z,102175.41
2023-04-18T20:46:52.776Z,102153.41
2023-04-18T20:49:18.991Z,102170.25
2023-04-18T20:51:45.213Z,102209.22
2023-04-18T20:54:11.412Z,102207.94
2023-04-18T20:56:37.654Z,102245.06
2023-04-18T20:59:03.901Z,102227.22
2023-04-18T21:01:30.293Z,102271.41
2023-04-18T21:03:56.924Z,102267.06
2023-04-18T21:06:23.270Z,102244.69
2023-04-18T21:08:49.488Z,102209.56
2023-04-18T21:11:15.708Z,102221.25
2023-04-18T21:13:41.950Z,102250.41
2023-04-18T21:16:08.223Z,102255.41
2023-04-18T21:18:34.461Z,102290.34
2023-04-18T21:21:00.679Z,102272.22
2023-04-18T21:23:26.910Z,102228.34
2023-04-18T21:25:53.109Z,102207.97
2023-04-18T21:28:19.416Z,102174.94
2023-04-18T21:30:45.712Z,102211.06
2023-04-18T21:33:12.134Z,102263.50
2023-04-18T21:35:38.334Z,102282.59
2023-04-18T21:38:04.542Z,102232.25
2023-04-18T21:40:30.787Z,102192.13
2023-04-18T21:42:56.998Z,102215.75
2023-04-18T21:45:23.251Z,102238.88
2023-04-18T21:47:49.684Z,102231.91
2023-04-18T21:50:15.930Z,102204.41
2023-04-18T21:52:42.134Z,102245.34
2023-04-18T21:55:08.527Z,102321.03
2023-04-18T21:57:35.065Z,102304.84
2023-04-18T22:00:01.297Z,102299.34
2023-04-18T22:02:27.688Z,102305.75
2023-04-18T22:04:53.977Z,102319.88
2023-04-18T22:07:20.187Z,102300.81
2023-04-18T22:09:46.386Z,102235.28
2023-04-18T22:12:12.606Z,102232.88
2023-04-18T22:14:38.800Z,102189.53
2023-04-18T22:17:05.018Z,102201.81
2023-04-18T22:19:31.250Z,102132.78
2023-04-18T22:21:57.477Z,102139.88
2023-04-18T22:24:23.683Z,102199.72
2023-04-18T22:26:49.896Z,102190.94
2023-04-18T22:29:16.130Z,102221.69
2023-04-18T22:31:42.797Z,102223.09
2023-04-18T22:34:09.031Z,102258.19
2023-04-18T22:36:35.240Z,102276.94
2023-04-18T22:39:01.466Z,102208.06
2023-04-18T22:41:27.677Z,102173.69
2023-04-18T22:43:53.893Z,102145.44
2023-04-18T22:46:20.123Z,102135.22
2023-04-18T22:48:46.334Z,102096.34
2023-04-18T22:51:12.528Z,102088.88
2023-04-18T22:53:38.760Z,102085.31
2023-04-18T22:56:05.092Z,102111.59
2023-04-18T22:58:31.316Z,102157.06
2023-04-18T23:00:57.517Z,102209.19
2023-04-18T23:03:23.877Z,102284.00
2023-04-18T23:05:50.278Z,102375.06
2023-04-18T23:08:16.503Z,102365.31
2023-04-18T23:10:42.699Z,102333.28
2023-04-18T23:13:08.911Z,102315.81
2023-04-18T23:15:35.209Z,102244.22
2023-04-18T23:18:01.561Z,102178.41
2023-04-18T23:20:27.851Z,102119.28
2023-04-18T23:22:54.073Z,102085.53
2023-04-18T23:25:20.285Z,102066.31
2023-04-18T23:27:46.499Z,102063.13
2023-04-18T23:30:12.702Z,102021.28
2023-04-18T23:32:38.970Z,101995.63
2023-04-18T23:35:05.664Z,101992.09
2023-04-18T23:37:31.897Z,102016.91
2023-04-18T23:39:58.957Z,102020.59
2023-04-18T23:42:25.170Z,102005.75
2023-04-18T23:44:51.376Z,101996.06
2023-04-18T23:47:17.669Z,102015.88
2023-04-18T23:49:43.904Z,102028.13
2023-04-18T23:52:10.110Z,102046.84
2023-04-18T23:54:36.332Z,102064.44
2023-04-18T23:57:02.559Z,102053.69
2023-04-18T23:59:28.767Z,102027.38
